sensor_id;sensor_type;location;lat;lon;timestamp;P1;durP1;ratioP1;P2;durP2;ratioP2
3085;SDS011;52812;48.960;9.108;2024-01-25T00:01:07;12.23;;;3.17;;
3085;SDS011;52812;48.960;9.108;2024-01-25T00:03:32;13.63;;;3.77;;
3085;SDS011;52812;48.960;9.108;2024-01-25T00:05:59;12.80;;;3.63;;
3085;SDS011;52812;48.960;9.108;2024-01-25T00:08:25;19.17;;;3.67;;
3085;SDS011;52812;48.960;9.108;2024-01-25T00:10:50;14.50;;;3.90;;
3085;SDS011;52812;48.960;9.108;2024-01-25T00:13:16;12.30;;;3.53;;
3085;SDS011;52812;48.960;9.108;2024-01-25T00:15:42;14.60;;;3.60;;
3085;SDS011;52812;48.960;9.108;2024-01-25T00:18:07;14.87;;;3.10;;
3085;SDS011;52812;48.960;9.108;2024-01-25T00:20:33;13.00;;;2.80;;
3085;SDS011;52812;48.960;9.108;2024-01-25T00:22:58;15.20;;;3.10;;
3085;SDS011;52812;48.960;9.108;2024-01-25T00:25:24;12.80;;;3.40;;
3085;SDS011;52812;48.960;9.108;2024-01-25T00:27:50;15.90;;;3.50;;
3085;SDS011;52812;48.960;9.108;2024-01-25T00:30:15;7.27;;;2.80;;
3085;SDS011;52812;48.960;9.108;2024-01-25T00:32:41;10.53;;;3.20;;
3085;SDS011;52812;48.960;9.108;2024-01-25T00:35:08;12.37;;;3.77;;
3085;SDS011;52812;48.960;9.108;2024-01-25T00:37:35;12.57;;;3.20;;
3085;SDS011;52812;48.960;9.108;2024-01-25T00:40:02;10.33;;;3.30;;
3085;SDS011;52812;48.960;9.108;2024-01-25T00:42:28;19.57;;;4.83;;
3085;SDS011;52812;48.960;9.108;2024-01-25T00:44:55;14.37;;;3.27;;
3085;SDS011;52812;48.960;9.108;2024-01-25T00:47:21;13.60;;;3.37;;
3085;SDS011;52812;48.960;9.108;2024-01-25T00:49:47;13.63;;;3.40;;
3085;SDS011;52812;48.960;9.108;2024-01-25T00:52:13;9.90;;;2.90;;
3085;SDS011;52812;48.960;9.108;2024-01-25T00:54:39;17.77;;;4.77;;
3085;SDS011;52812;48.960;9.108;2024-01-25T00:57:05;16.60;;;3.17;;
3085;SDS011;52812;48.960;9.108;2024-01-25T00:59:31;17.80;;;3.30;;
3085;SDS011;52812;48.960;9.108;2024-01-25T01:01:58;13.17;;;3.60;;
3085;SDS011;52812;48.960;9.108;2024-01-25T01:04:24;19.90;;;4.30;;
3085;SDS011;52812;48.960;9.108;2024-01-25T01:06:51;12.27;;;3.23;;
3085;SDS011;52812;48.960;9.108;2024-01-25T01:09:17;13.73;;;3.87;;
3085;SDS011;52812;48.960;9.108;2024-01-25T01:11:43;18.17;;;3.27;;
3085;SDS011;52812;48.960;9.108;2024-01-25T01:14:08;13.37;;;3.63;;
3085;SDS011;52812;48.960;9.108;2024-01-25T01:16:34;10.27;;;3.17;;
3085;SDS011;52812;48.960;9.108;2024-01-25T01:19:01;9.90;;;3.37;;
3085;SDS011;52812;48.960;9.108;2024-01-25T01:21:30;9.03;;;3.53;;
3085;SDS011;52812;48.960;9.108;2024-01-25T01:23:57;12.03;;;3.80;;
3085;SDS011;52812;48.960;9.108;2024-01-25T01:26:23;11.13;;;2.90;;
3085;SDS011;52812;48.960;9.108;2024-01-25T01:28:48;11.63;;;3.10;;
3085;SDS011;52812;48.960;9.108;2024-01-25T01:31:14;17.03;;;3.50;;
3085;SDS011;52812;48.960;9.108;2024-01-25T01:33:39;9.30;;;3.30;;
3085;SDS011;52812;48.960;9.108;2024-01-25T01:36:05;14.80;;;4.67;;
3085;SDS011;52812;48.960;9.108;2024-01-25T01:38:31;8.97;;;3.07;;
3085;SDS011;52812;48.960;9.108;2024-01-25T01:40:57;14.37;;;4.33;;
3085;SDS011;52812;48.960;9.108;2024-01-25T01:43:22;13.73;;;3.70;;
3085;SDS011;52812;48.960;9.108;2024-01-25T01:45:48;9.50;;;3.00;;
3085;SDS011;52812;48.960;9.108;2024-01-25T01:48:14;12.03;;;3.60;;
3085;SDS011;52812;48.960;9.108;2024-01-25T01:50:42;14.10;;;3.00;;
3085;SDS011;52812;48.960;9.108;2024-01-25T01:53:09;12.13;;;3.43;;
3085;SDS011;52812;48.960;9.108;2024-01-25T01:55:35;15.50;;;4.03;;
3085;SDS011;52812;48.960;9.108;2024-01-25T01:58:01;18.10;;;3.53;;
3085;SDS011;52812;48.960;9.108;2024-01-25T02:00:27;14.60;;;3.50;;
3085;SDS011;52812;48.960;9.108;2024-01-25T02:02:55;14.00;;;3.20;;
3085;SDS011;52812;48.960;9.108;2024-01-25T02:05:23;19.40;;;5.87;;
3085;SDS011;52812;48.960;9.108;2024-01-25T02:07:49;14.33;;;3.13;;
3085;SDS011;52812;48.960;9.108;2024-01-25T02:10:14;15.60;;;3.53;;
3085;SDS011;52812;48.960;9.108;2024-01-25T02:12:40;18.17;;;3.50;;
3085;SDS011;52812;48.960;9.108;2024-01-25T02:15:06;9.57;;;3.00;;
3085;SDS011;52812;48.960;9.108;2024-01-25T02:17:32;10.33;;;2.97;;
3085;SDS011;52812;48.960;9.108;2024-01-25T02:19:58;12.33;;;3.90;;
3085;SDS011;52812;48.960;9.108;2024-01-25T02:22:24;11.77;;;3.50;;
3085;SDS011;52812;48.960;9.108;2024-01-25T02:24:49;15.53;;;4.47;;
3085;SDS011;52812;48.960;9.108;2024-01-25T02:27:15;12.70;;;2.90;;
3085;SDS011;52812;48.960;9.108;2024-01-25T02:29:41;11.50;;;3.40;;
3085;SDS011;52812;48.960;9.108;2024-01-25T02:32:06;12.40;;;3.30;;
3085;SDS011;52812;48.960;9.108;2024-01-25T02:34:32;12.93;;;3.70;;
3085;SDS011;52812;48.960;9.108;2024-01-25T02:36:57;18.60;;;4.17;;
3085;SDS011;52812;48.960;9.108;2024-01-25T02:39:23;15.00;;;3.80;;
3085;SDS011;52812;48.960;9.108;2024-01-25T02:41:49;11.73;;;3.73;;
3085;SDS011;52812;48.960;9.108;2024-01-25T02:44:14;12.93;;;3.50;;
3085;SDS011;52812;48.960;9.108;2024-01-25T02:46:40;13.43;;;3.47;;
3085;SDS011;52812;48.960;9.108;2024-01-25T02:49:06;8.97;;;2.97;;
3085;SDS011;52812;48.960;9.108;2024-01-25T02:51:32;13.60;;;3.13;;
3085;SDS011;52812;48.960;9.108;2024-01-25T02:53:57;19.53;;;3.73;;
3085;SDS011;52812;48.960;9.108;2024-01-25T02:56:23;14.50;;;3.73;;
3085;SDS011;52812;48.960;9.108;2024-01-25T02:58:49;11.40;;;3.87;;
3085;SDS011;52812;48.960;9.108;2024-01-25T03:01:17;10.90;;;3.20;;
3085;SDS011;52812;48.960;9.108;2024-01-25T03:03:43;9.17;;;3.20;;
3085;SDS011;52812;48.960;9.108;2024-01-25T03:06:08;13.50;;;3.70;;
3085;SDS011;52812;48.960;9.108;2024-01-25T03:08:34;14.67;;;3.50;;
3085;SDS011;52812;48.960;9.108;2024-01-25T03:11:00;13.23;;;3.57;;
3085;SDS011;52812;48.960;9.108;2024-01-25T03:13:28;9.33;;;3.23;;
3085;SDS011;52812;48.960;9.108;2024-01-25T03:15:54;7.57;;;3.00;;
3085;SDS011;52812;48.960;9.108;2024-01-25T03:18:19;13.77;;;4.40;;
3085;SDS011;52812;48.960;9.108;2024-01-25T03:20:45;14.83;;;4.20;;
3085;SDS011;52812;48.960;9.108;2024-01-25T03:23:11;14.53;;;3.80;;
3085;SDS011;52812;48.960;9.108;2024-01-25T03:25:36;10.93;;;3.50;;
3085;SDS011;52812;48.960;9.108;2024-01-25T03:28:02;10.17;;;3.10;;
3085;SDS011;52812;48.960;9.108;2024-01-25T03:30:30;13.83;;;3.43;;
3085;SDS011;52812;48.960;9.108;2024-01-25T03:32:56;8.87;;;3.43;;
3085;SDS011;52812;48.960;9.108;2024-01-25T03:35:22;11.20;;;3.80;;
3085;SDS011;52812;48.960;9.108;2024-01-25T03:37:47;8.73;;;3.63;;
3085;SDS011;52812;48.960;9.108;2024-01-25T03:40:13;26.00;;;9.87;;
3085;SDS011;52812;48.960;9.108;2024-01-25T03:42:38;25.60;;;9.80;;
3085;SDS011;52812;48.960;9.108;2024-01-25T03:45:04;23.83;;;9.23;;
3085;SDS011;52812;48.960;9.108;2024-01-25T03:47:30;25.63;;;10.80;;
3085;SDS011;52812;48.960;9.108;2024-01-25T03:49:56;23.80;;;7.00;;
3085;SDS011;52812;48.960;9.108;2024-01-25T03:52:21;14.83;;;5.60;;
3085;SDS011;52812;48.960;9.108;2024-01-25T03:54:47;17.23;;;5.97;;
3085;SDS011;52812;48.960;9.108;2024-01-25T03:57:12;17.63;;;5.13;;
3085;SDS011;52812;48.960;9.108;2024-01-25T03:59:38;20.30;;;4.70;;
3085;SDS011;52812;48.960;9.108;2024-01-25T04:02:04;16.83;;;5.17;;
3085;SDS011;52812;48.960;9.108;2024-01-25T04:04:29;11.30;;;4.60;;
3085;SDS011;52812;48.960;9.108;2024-01-25T04:06:55;11.23;;;3.37;;
3085;SDS011;52812;48.960;9.108;2024-01-25T04:09:20;8.20;;;3.20;;
3085;SDS011;52812;48.960;9.108;2024-01-25T04:11:46;15.33;;;3.50;;
3085;SDS011;52812;48.960;9.108;2024-01-25T04:14:12;11.63;;;3.20;;
3085;SDS011;52812;48.960;9.108;2024-01-25T04:16:37;12.63;;;3.40;;
3085;SDS011;52812;48.960;9.108;2024-01-25T04:19:03;9.93;;;3.67;;
3085;SDS011;52812;48.960;9.108;2024-01-25T04:21:29;19.30;;;3.90;;
3085;SDS011;52812;48.960;9.108;2024-01-25T04:23:54;14.87;;;3.70;;
3085;SDS011;52812;48.960;9.108;2024-01-25T04:26:20;12.47;;;3.93;;
3085;SDS011;52812;48.960;9.108;2024-01-25T04:28:45;13.67;;;3.93;;
3085;SDS011;52812;48.960;9.108;2024-01-25T04:31:11;13.80;;;3.77;;
3085;SDS011;52812;48.960;9.108;2024-01-25T04:33:37;16.50;;;3.63;;
3085;SDS011;52812;48.960;9.108;2024-01-25T04:36:04;16.70;;;4.20;;
3085;SDS011;52812;48.960;9.108;2024-01-25T04:38:29;13.43;;;3.93;;
3085;SDS011;52812;48.960;9.108;2024-01-25T04:40:55;13.83;;;3.70;;
3085;SDS011;52812;48.960;9.108;2024-01-25T04:43:21;12.83;;;3.37;;
3085;SDS011;52812;48.960;9.108;2024-01-25T04:45:46;15.30;;;4.10;;
3085;SDS011;52812;48.960;9.108;2024-01-25T04:48:12;11.50;;;4.60;;
3085;SDS011;52812;48.960;9.108;2024-01-25T04:50:38;16.47;;;4.63;;
3085;SDS011;52812;48.960;9.108;2024-01-25T04:53:04;14.80;;;3.60;;
3085;SDS011;52812;48.960;9.108;2024-01-25T04:55:30;12.80;;;3.87;;
3085;SDS011;52812;48.960;9.108;2024-01-25T04:57:55;14.47;;;4.53;;
3085;SDS011;52812;48.960;9.108;2024-01-25T05:00:21;15.77;;;5.53;;
3085;SDS011;52812;48.960;9.108;2024-01-25T05:02:48;16.60;;;4.20;;
3085;SDS011;52812;48.960;9.108;2024-01-25T05:05:14;11.90;;;3.80;;
3085;SDS011;52812;48.960;9.108;2024-01-25T05:07:40;17.73;;;4.43;;
3085;SDS011;52812;48.960;9.108;2024-01-25T05:10:06;10.77;;;3.67;;
3085;SDS011;52812;48.960;9.108;2024-01-25T05:12:32;12.53;;;3.90;;
3085;SDS011;52812;48.960;9.108;2024-01-25T05:14:58;13.80;;;3.43;;
3085;SDS011;52812;48.960;9.108;2024-01-25T05:17:24;11.20;;;3.37;;
3085;SDS011;52812;48.960;9.108;2024-01-25T05:19:49;11.60;;;3.83;;
3085;SDS011;52812;48.960;9.108;2024-01-25T05:22:15;20.20;;;3.07;;
3085;SDS011;52812;48.960;9.108;2024-01-25T05:24:41;10.13;;;3.20;;
3085;SDS011;52812;48.960;9.108;2024-01-25T05:27:07;13.50;;;4.23;;
3085;SDS011;52812;48.960;9.108;2024-01-25T05:29:32;12.23;;;3.90;;
3085;SDS011;52812;48.960;9.108;2024-01-25T05:31:58;11.90;;;3.40;;
3085;SDS011;52812;48.960;9.108;2024-01-25T05:34:23;21.07;;;3.83;;
3085;SDS011;52812;48.960;9.108;2024-01-25T05:36:49;14.00;;;3.67;;
3085;SDS011;52812;48.960;9.108;2024-01-25T05:39:15;16.73;;;3.43;;
3085;SDS011;52812;48.960;9.108;2024-01-25T05:41:42;12.20;;;3.50;;
3085;SDS011;52812;48.960;9.108;2024-01-25T05:44:10;16.60;;;3.93;;
3085;SDS011;52812;48.960;9.108;2024-01-25T05:46:36;12.93;;;3.40;;
3085;SDS011;52812;48.960;9.108;2024-01-25T05:49:02;15.37;;;4.17;;
3085;SDS011;52812;48.960;9.108;2024-01-25T05:51:27;14.00;;;3.93;;
3085;SDS011;52812;48.960;9.108;2024-01-25T05:53:53;12.83;;;3.63;;
3085;SDS011;52812;48.960;9.108;2024-01-25T05:56:19;12.10;;;4.40;;
3085;SDS011;52812;48.960;9.108;2024-01-25T05:58:45;13.40;;;5.30;;
3085;SDS011;52812;48.960;9.108;2024-01-25T06:01:10;12.50;;;4.83;;
3085;SDS011;52812;48.960;9.108;2024-01-25T06:03:36;19.73;;;5.27;;
3085;SDS011;52812;48.960;9.108;2024-01-25T06:06:01;15.93;;;4.20;;
3085;SDS011;52812;48.960;9.108;2024-01-25T06:08:27;12.03;;;4.70;;
3085;SDS011;52812;48.960;9.108;2024-01-25T06:10:53;14.07;;;4.10;;
3085;SDS011;52812;48.960;9.108;2024-01-25T06:13:18;14.50;;;3.40;;
3085;SDS011;52812;48.960;9.108;2024-01-25T06:15:44;15.40;;;4.20;;
3085;SDS011;52812;48.960;9.108;2024-01-25T06:18:10;10.60;;;3.73;;
3085;SDS011;52812;48.960;9.108;2024-01-25T06:20:35;12.57;;;4.33;;
3085;SDS011;52812;48.960;9.108;2024-01-25T06:23:01;13.80;;;5.10;;
3085;SDS011;52812;48.960;9.108;2024-01-25T06:25:26;16.13;;;5.10;;
3085;SDS011;52812;48.960;9.108;2024-01-25T06:27:55;13.83;;;4.67;;
3085;SDS011;52812;48.960;9.108;2024-01-25T06:30:22;17.17;;;4.37;;
3085;SDS011;52812;48.960;9.108;2024-01-25T06:32:48;13.90;;;4.90;;
3085;SDS011;52812;48.960;9.108;2024-01-25T06:35:13;16.13;;;4.53;;
3085;SDS011;52812;48.960;9.108;2024-01-25T06:37:39;14.53;;;5.90;;
3085;SDS011;52812;48.960;9.108;2024-01-25T06:40:05;16.00;;;5.40;;
3085;SDS011;52812;48.960;9.108;2024-01-25T06:42:34;16.13;;;5.80;;
3085;SDS011;52812;48.960;9.108;2024-01-25T06:45:00;18.50;;;6.93;;
3085;SDS011;52812;48.960;9.108;2024-01-25T06:47:25;23.47;;;5.80;;
3085;SDS011;52812;48.960;9.108;2024-01-25T06:49:51;18.63;;;6.47;;
3085;SDS011;52812;48.960;9.108;2024-01-25T06:52:17;17.20;;;4.83;;
3085;SDS011;52812;48.960;9.108;2024-01-25T06:54:43;21.60;;;5.67;;
3085;SDS011;52812;48.960;9.108;2024-01-25T06:57:09;21.67;;;5.33;;
3085;SDS011;52812;48.960;9.108;2024-01-25T06:59:35;15.50;;;4.67;;
3085;SDS011;52812;48.960;9.108;2024-01-25T07:02:01;16.57;;;5.07;;
3085;SDS011;52812;48.960;9.108;2024-01-25T07:04:29;15.10;;;4.30;;
3085;SDS011;52812;48.960;9.108;2024-01-25T07:06:55;16.20;;;4.20;;
3085;SDS011;52812;48.960;9.108;2024-01-25T07:09:20;9.67;;;4.00;;
3085;SDS011;52812;48.960;9.108;2024-01-25T07:11:46;12.40;;;3.83;;
3085;SDS011;52812;48.960;9.108;2024-01-25T07:14:12;13.33;;;3.57;;
3085;SDS011;52812;48.960;9.108;2024-01-25T07:16:37;12.73;;;3.83;;
3085;SDS011;52812;48.960;9.108;2024-01-25T07:19:03;10.40;;;3.50;;
3085;SDS011;52812;48.960;9.108;2024-01-25T07:21:29;13.07;;;4.07;;
3085;SDS011;52812;48.960;9.108;2024-01-25T07:23:59;22.03;;;5.00;;
3085;SDS011;52812;48.960;9.108;2024-01-25T07:26:27;15.27;;;6.30;;
3085;SDS011;52812;48.960;9.108;2024-01-25T07:28:53;14.07;;;5.00;;
3085;SDS011;52812;48.960;9.108;2024-01-25T07:31:23;22.10;;;5.87;;
3085;SDS011;52812;48.960;9.108;2024-01-25T07:33:50;24.17;;;6.17;;
3085;SDS011;52812;48.960;9.108;2024-01-25T07:36:16;19.63;;;4.87;;
3085;SDS011;52812;48.960;9.108;2024-01-25T07:38:42;14.03;;;5.23;;
3085;SDS011;52812;48.960;9.108;2024-01-25T07:41:08;17.63;;;6.00;;
3085;SDS011;52812;48.960;9.108;2024-01-25T07:43:34;20.20;;;7.30;;
3085;SDS011;52812;48.960;9.108;2024-01-25T07:45:59;16.33;;;6.10;;
3085;SDS011;52812;48.960;9.108;2024-01-25T07:48:25;20.53;;;9.43;;
3085;SDS011;52812;48.960;9.108;2024-01-25T07:50:50;26.57;;;10.50;;
3085;SDS011;52812;48.960;9.108;2024-01-25T07:53:16;23.60;;;8.73;;
3085;SDS011;52812;48.960;9.108;2024-01-25T07:55:42;20.63;;;8.30;;
3085;SDS011;52812;48.960;9.108;2024-01-25T07:58:08;16.00;;;6.50;;
3085;SDS011;52812;48.960;9.108;2024-01-25T08:00:34;15.77;;;5.73;;
3085;SDS011;52812;48.960;9.108;2024-01-25T08:02:59;13.33;;;5.20;;
3085;SDS011;52812;48.960;9.108;2024-01-25T08:05:25;13.73;;;5.27;;
3085;SDS011;52812;48.960;9.108;2024-01-25T08:07:51;12.77;;;4.83;;
3085;SDS011;52812;48.960;9.108;2024-01-25T08:10:16;16.83;;;5.40;;
3085;SDS011;52812;48.960;9.108;2024-01-25T08:12:42;11.90;;;4.60;;
3085;SDS011;52812;48.960;9.108;2024-01-25T08:15:09;14.90;;;5.23;;
3085;SDS011;52812;48.960;9.108;2024-01-25T08:17:37;11.70;;;5.20;;
3085;SDS011;52812;48.960;9.108;2024-01-25T08:20:03;12.43;;;5.17;;
3085;SDS011;52812;48.960;9.108;2024-01-25T08:22:31;18.67;;;5.80;;
3085;SDS011;52812;48.960;9.108;2024-01-25T08:24:57;15.33;;;5.97;;
3085;SDS011;52812;48.960;9.108;2024-01-25T08:27:22;13.40;;;4.23;;
3085;SDS011;52812;48.960;9.108;2024-01-25T08:29:48;10.80;;;4.03;;
3085;SDS011;52812;48.960;9.108;2024-01-25T08:32:13;12.27;;;4.30;;
3085;SDS011;52812;48.960;9.108;2024-01-25T08:34:39;12.90;;;4.37;;
3085;SDS011;52812;48.960;9.108;2024-01-25T08:37:05;16.13;;;5.13;;
3085;SDS011;52812;48.960;9.108;2024-01-25T08:39:30;19.83;;;5.67;;
3085;SDS011;52812;48.960;9.108;2024-01-25T08:41:56;14.50;;;4.30;;
3085;SDS011;52812;48.960;9.108;2024-01-25T08:44:25;18.60;;;5.53;;
3085;SDS011;52812;48.960;9.108;2024-01-25T08:46:51;16.43;;;5.33;;
3085;SDS011;52812;48.960;9.108;2024-01-25T08:49:17;14.43;;;4.60;;
3085;SDS011;52812;48.960;9.108;2024-01-25T08:51:42;15.33;;;4.20;;
3085;SDS011;52812;48.960;9.108;2024-01-25T08:54:08;15.13;;;4.53;;
3085;SDS011;52812;48.960;9.108;2024-01-25T08:56:34;21.23;;;4.90;;
3085;SDS011;52812;48.960;9.108;2024-01-25T08:59:00;15.07;;;4.40;;
3085;SDS011;52812;48.960;9.108;2024-01-25T09:01:25;16.00;;;5.37;;
3085;SDS011;52812;48.960;9.108;2024-01-25T09:03:51;14.10;;;4.40;;
3085;SDS011;52812;48.960;9.108;2024-01-25T09:06:17;16.40;;;5.20;;
3085;SDS011;52812;48.960;9.108;2024-01-25T09:08:43;15.70;;;5.20;;
3085;SDS011;52812;48.960;9.108;2024-01-25T09:11:08;17.73;;;4.60;;
3085;SDS011;52812;48.960;9.108;2024-01-25T09:13:34;15.37;;;4.70;;
3085;SDS011;52812;48.960;9.108;2024-01-25T09:16:00;11.23;;;4.43;;
3085;SDS011;52812;48.960;9.108;2024-01-25T09:18:25;17.23;;;5.40;;
3085;SDS011;52812;48.960;9.108;2024-01-25T09:20:51;13.60;;;4.33;;
3085;SDS011;52812;48.960;9.108;2024-01-25T09:23:17;9.90;;;4.83;;
3085;SDS011;52812;48.960;9.108;2024-01-25T09:25:43;19.30;;;5.27;;
3085;SDS011;52812;48.960;9.108;2024-01-25T09:28:10;17.20;;;5.33;;
3085;SDS011;52812;48.960;9.108;2024-01-25T09:30:39;13.90;;;4.53;;
3085;SDS011;52812;48.960;9.108;2024-01-25T09:33:08;18.00;;;4.60;;
3085;SDS011;52812;48.960;9.108;2024-01-25T09:35:34;20.73;;;4.77;;
3085;SDS011;52812;48.960;9.108;2024-01-25T09:37:59;17.97;;;4.20;;
3085;SDS011;52812;48.960;9.108;2024-01-25T09:40:25;15.13;;;4.60;;
3085;SDS011;52812;48.960;9.108;2024-01-25T09:42:51;13.20;;;4.40;;
3085;SDS011;52812;48.960;9.108;2024-01-25T09:45:18;17.87;;;4.37;;
3085;SDS011;52812;48.960;9.108;2024-01-25T09:47:44;15.03;;;3.93;;
3085;SDS011;52812;48.960;9.108;2024-01-25T09:50:10;14.30;;;3.87;;
3085;SDS011;52812;48.960;9.108;2024-01-25T09:52:37;16.43;;;4.10;;
3085;SDS011;52812;48.960;9.108;2024-01-25T09:55:04;13.77;;;4.10;;
3085;SDS011;52812;48.960;9.108;2024-01-25T09:57:38;10.50;;;3.87;;
3085;SDS011;52812;48.960;9.108;2024-01-25T10:00:09;12.53;;;3.77;;
3085;SDS011;52812;48.960;9.108;2024-01-25T10:02:37;9.67;;;3.40;;
3085;SDS011;52812;48.960;9.108;2024-01-25T10:05:03;11.90;;;3.60;;
3085;SDS011;52812;48.960;9.108;2024-01-25T10:07:39;13.77;;;3.67;;
3085;SDS011;52812;48.960;9.108;2024-01-25T10:10:06;16.70;;;4.07;;
3085;SDS011;52812;48.960;9.108;2024-01-25T10:12:33;14.47;;;4.03;;
3085;SDS011;52812;48.960;9.108;2024-01-25T10:14:59;12.23;;;4.40;;
3085;SDS011;52812;48.960;9.108;2024-01-25T10:17:25;13.87;;;4.07;;
3085;SDS011;52812;48.960;9.108;2024-01-25T10:19:51;17.60;;;4.60;;
3085;SDS011;52812;48.960;9.108;2024-01-25T10:22:17;12.13;;;3.90;;
3085;SDS011;52812;48.960;9.108;2024-01-25T10:24:43;28.17;;;5.77;;
3085;SDS011;52812;48.960;9.108;2024-01-25T10:27:09;15.77;;;4.83;;
3085;SDS011;52812;48.960;9.108;2024-01-25T10:29:36;10.97;;;3.90;;
3085;SDS011;52812;48.960;9.108;2024-01-25T10:32:05;10.60;;;3.70;;
3085;SDS011;52812;48.960;9.108;2024-01-25T10:34:33;13.70;;;4.10;;
3085;SDS011;52812;48.960;9.108;2024-01-25T10:37:02;18.10;;;4.00;;
3085;SDS011;52812;48.960;9.108;2024-01-25T10:39:31;13.40;;;3.70;;
3085;SDS011;52812;48.960;9.108;2024-01-25T10:41:58;12.60;;;3.30;;
3085;SDS011;52812;48.960;9.108;2024-01-25T10:44:24;9.03;;;3.20;;
3085;SDS011;52812;48.960;9.108;2024-01-25T10:46:50;11.90;;;3.87;;
3085;SDS011;52812;48.960;9.108;2024-01-25T10:49:17;14.27;;;3.50;;
3085;SDS011;52812;48.960;9.108;2024-01-25T10:51:43;14.10;;;3.90;;
3085;SDS011;52812;48.960;9.108;2024-01-25T10:54:13;20.00;;;4.50;;
3085;SDS011;52812;48.960;9.108;2024-01-25T10:56:43;12.47;;;4.23;;
3085;SDS011;52812;48.960;9.108;2024-01-25T10:59:11;17.10;;;3.83;;
3085;SDS011;52812;48.960;9.108;2024-01-25T11:01:36;8.93;;;3.07;;
3085;SDS011;52812;48.960;9.108;2024-01-25T11:04:02;14.27;;;4.40;;
3085;SDS011;52812;48.960;9.108;2024-01-25T11:06:36;9.40;;;3.73;;
3085;SDS011;52812;48.960;9.108;2024-01-25T11:09:05;19.53;;;4.63;;
3085;SDS011;52812;48.960;9.108;2024-01-25T11:11:32;12.00;;;3.90;;
3085;SDS011;52812;48.960;9.108;2024-01-25T11:13:58;15.67;;;3.70;;
3085;SDS011;52812;48.960;9.108;2024-01-25T11:16:28;15.23;;;3.33;;
3085;SDS011;52812;48.960;9.108;2024-01-25T11:18:56;12.17;;;3.57;;
3085;SDS011;52812;48.960;9.108;2024-01-25T11:24:15;11.53;;;3.40;;
3085;SDS011;52812;48.960;9.108;2024-01-25T11:26:54;14.50;;;4.60;;
3085;SDS011;52812;48.960;9.108;2024-01-25T11:29:21;14.60;;;3.87;;
3085;SDS011;52812;48.960;9.108;2024-01-25T11:31:52;13.10;;;3.63;;
3085;SDS011;52812;48.960;9.108;2024-01-25T11:34:18;15.37;;;3.27;;
3085;SDS011;52812;48.960;9.108;2024-01-25T11:36:44;12.93;;;3.30;;
3085;SDS011;52812;48.960;9.108;2024-01-25T11:39:10;14.57;;;4.57;;
3085;SDS011;52812;48.960;9.108;2024-01-25T11:41:37;10.07;;;3.70;;
3085;SDS011;52812;48.960;9.108;2024-01-25T11:44:03;14.70;;;3.77;;
3085;SDS011;52812;48.960;9.108;2024-01-25T11:46:30;11.97;;;3.10;;
3085;SDS011;52812;48.960;9.108;2024-01-25T11:48:56;7.40;;;3.10;;
3085;SDS011;52812;48.960;9.108;2024-01-25T11:51:23;11.20;;;3.80;;
3085;SDS011;52812;48.960;9.108;2024-01-25T11:53:48;9.00;;;3.17;;
3085;SDS011;52812;48.960;9.108;2024-01-25T11:56:14;11.77;;;3.10;;
3085;SDS011;52812;48.960;9.108;2024-01-25T11:58:48;9.67;;;2.80;;
3085;SDS011;52812;48.960;9.108;2024-01-25T12:01:14;13.30;;;3.17;;
3085;SDS011;52812;48.960;9.108;2024-01-25T12:03:41;4.63;;;3.00;;
3085;SDS011;52812;48.960;9.108;2024-01-25T12:06:07;10.03;;;3.53;;
3085;SDS011;52812;48.960;9.108;2024-01-25T12:08:35;9.80;;;3.20;;
3085;SDS011;52812;48.960;9.108;2024-01-25T12:11:08;6.70;;;2.53;;
3085;SDS011;52812;48.960;9.108;2024-01-25T12:13:35;15.30;;;4.73;;
3085;SDS011;52812;48.960;9.108;2024-01-25T12:16:02;19.53;;;3.87;;
3085;SDS011;52812;48.960;9.108;2024-01-25T12:18:29;8.87;;;3.20;;
3085;SDS011;52812;48.960;9.108;2024-01-25T12:20:57;11.10;;;3.00;;
3085;SDS011;52812;48.960;9.108;2024-01-25T12:23:36;13.37;;;3.27;;
3085;SDS011;52812;48.960;9.108;2024-01-25T12:26:04;9.00;;;2.53;;
3085;SDS011;52812;48.960;9.108;2024-01-25T12:28:31;10.57;;;2.63;;
3085;SDS011;52812;48.960;9.108;2024-01-25T12:30:58;9.07;;;3.20;;
3085;SDS011;52812;48.960;9.108;2024-01-25T12:33:25;18.33;;;2.80;;
3085;SDS011;52812;48.960;9.108;2024-01-25T12:35:51;7.20;;;2.73;;
3085;SDS011;52812;48.960;9.108;2024-01-25T12:38:18;9.80;;;3.20;;
3085;SDS011;52812;48.960;9.108;2024-01-25T12:40:46;6.70;;;2.90;;
3085;SDS011;52812;48.960;9.108;2024-01-25T12:43:13;9.23;;;3.13;;
3085;SDS011;52812;48.960;9.108;2024-01-25T12:45:39;7.30;;;2.90;;
3085;SDS011;52812;48.960;9.108;2024-01-25T12:48:05;5.60;;;3.00;;
3085;SDS011;52812;48.960;9.108;2024-01-25T12:50:33;5.27;;;2.53;;
3085;SDS011;52812;48.960;9.108;2024-01-25T12:52:59;8.47;;;3.37;;
3085;SDS011;52812;48.960;9.108;2024-01-25T12:55:25;7.90;;;3.40;;
3085;SDS011;52812;48.960;9.108;2024-01-25T12:57:50;8.40;;;3.30;;
3085;SDS011;52812;48.960;9.108;2024-01-25T13:00:16;8.43;;;2.80;;
3085;SDS011;52812;48.960;9.108;2024-01-25T13:02:42;9.03;;;2.63;;
3085;SDS011;52812;48.960;9.108;2024-01-25T13:05:07;5.73;;;2.30;;
3085;SDS011;52812;48.960;9.108;2024-01-25T13:07:33;9.20;;;3.10;;
3085;SDS011;52812;48.960;9.108;2024-01-25T13:09:59;11.27;;;4.47;;
3085;SDS011;52812;48.960;9.108;2024-01-25T13:12:24;10.43;;;4.10;;
3085;SDS011;52812;48.960;9.108;2024-01-25T13:14:50;10.80;;;4.40;;
3085;SDS011;52812;48.960;9.108;2024-01-25T13:17:16;8.60;;;4.07;;
3085;SDS011;52812;48.960;9.108;2024-01-25T13:19:41;10.23;;;4.07;;
3085;SDS011;52812;48.960;9.108;2024-01-25T13:22:07;10.93;;;3.60;;
3085;SDS011;52812;48.960;9.108;2024-01-25T13:24:32;14.87;;;4.37;;
3085;SDS011;52812;48.960;9.108;2024-01-25T13:26:58;10.47;;;3.83;;
3085;SDS011;52812;48.960;9.108;2024-01-25T13:29:23;8.20;;;3.30;;
3085;SDS011;52812;48.960;9.108;2024-01-25T13:31:49;17.30;;;4.20;;
3085;SDS011;52812;48.960;9.108;2024-01-25T13:34:15;9.57;;;3.57;;
3085;SDS011;52812;48.960;9.108;2024-01-25T13:36:40;10.00;;;3.00;;
3085;SDS011;52812;48.960;9.108;2024-01-25T13:39:06;8.83;;;3.60;;
3085;SDS011;52812;48.960;9.108;2024-01-25T13:41:32;9.03;;;3.63;;
3085;SDS011;52812;48.960;9.108;2024-01-25T13:43:57;9.37;;;3.80;;
3085;SDS011;52812;48.960;9.108;2024-01-25T13:46:23;9.20;;;3.40;;
3085;SDS011;52812;48.960;9.108;2024-01-25T13:48:48;8.27;;;3.30;;
3085;SDS011;52812;48.960;9.108;2024-01-25T13:51:14;10.00;;;3.40;;
3085;SDS011;52812;48.960;9.108;2024-01-25T13:53:40;9.03;;;2.70;;
3085;SDS011;52812;48.960;9.108;2024-01-25T13:56:05;6.83;;;2.57;;
3085;SDS011;52812;48.960;9.108;2024-01-25T13:58:31;7.90;;;2.67;;
3085;SDS011;52812;48.960;9.108;2024-01-25T14:00:57;6.40;;;2.50;;
3085;SDS011;52812;48.960;9.108;2024-01-25T14:03:22;10.47;;;3.50;;
3085;SDS011;52812;48.960;9.108;2024-01-25T14:05:48;11.80;;;4.27;;
3085;SDS011;52812;48.960;9.108;2024-01-25T14:08:13;6.33;;;2.87;;
3085;SDS011;52812;48.960;9.108;2024-01-25T14:10:39;7.80;;;2.57;;
3085;SDS011;52812;48.960;9.108;2024-01-25T14:13:05;9.80;;;3.53;;
3085;SDS011;52812;48.960;9.108;2024-01-25T14:15:31;12.30;;;3.00;;
3085;SDS011;52812;48.960;9.108;2024-01-25T14:17:57;9.43;;;2.90;;
3085;SDS011;52812;48.960;9.108;2024-01-25T14:20:22;10.60;;;3.47;;
3085;SDS011;52812;48.960;9.108;2024-01-25T14:22:48;6.33;;;3.20;;
3085;SDS011;52812;48.960;9.108;2024-01-25T14:25:14;7.07;;;2.67;;
3085;SDS011;52812;48.960;9.108;2024-01-25T14:27:40;7.40;;;2.43;;
3085;SDS011;52812;48.960;9.108;2024-01-25T14:30:05;11.50;;;2.73;;
3085;SDS011;52812;48.960;9.108;2024-01-25T14:32:32;7.10;;;2.60;;
3085;SDS011;52812;48.960;9.108;2024-01-25T14:34:57;8.47;;;3.00;;
3085;SDS011;52812;48.960;9.108;2024-01-25T14:37:23;14.10;;;3.40;;
3085;SDS011;52812;48.960;9.108;2024-01-25T14:39:49;9.67;;;2.63;;
3085;SDS011;52812;48.960;9.108;2024-01-25T14:42:15;6.97;;;3.10;;
3085;SDS011;52812;48.960;9.108;2024-01-25T14:44:43;8.80;;;2.73;;
3085;SDS011;52812;48.960;9.108;2024-01-25T14:47:09;11.30;;;2.57;;